createdAt,value
2019-04-29T00:01:40.049Z,8.10
2019-04-29T00:04:06.527Z,8.00
2019-04-29T00:06:32.743Z,8.00
2019-04-29T00:08:58.981Z,8.00
2019-04-29T00:11:25.405Z,8.10
2019-04-29T00:13:51.677Z,8.00
2019-04-29T00:16:32.233Z,8.00
2019-04-29T00:19:09.662Z,8.10
2019-04-29T00:21:35.957Z,8.00
2019-04-29T00:24:03.928Z,8.00
2019-04-29T00:26:30.392Z,8.10
2019-04-29T00:28:56.511Z,8.10
2019-04-29T00:31:22.585Z,8.00
2019-04-29T00:33:48.819Z,8.00
2019-04-29T00:36:16.087Z,8.00
2019-04-29T00:38:56.451Z,8.00
2019-04-29T00:41:36.563Z,8.00
2019-04-29T00:44:04.739Z,8.00
2019-04-29T00:46:31.058Z,8.00
2019-04-29T00:48:58.575Z,7.90
2019-04-29T00:51:24.952Z,8.00
2019-04-29T00:53:53.265Z,8.00
2019-04-29T00:56:19.572Z,8.00
2019-04-29T00:58:45.777Z,8.00
2019-04-29T01:01:14.027Z,8.00
2019-04-29T01:03:41.200Z,8.00
2019-04-29T01:06:07.946Z,8.00
2019-04-29T01:08:34.379Z,8.10
2019-04-29T01:11:00.443Z,8.00
2019-04-29T01:13:26.605Z,8.00
2019-04-29T01:15:52.788Z,7.90
2019-04-29T01:18:18.887Z,7.90
2019-04-29T01:20:45.024Z,7.90
2019-04-29T01:23:11.209Z,7.80
2019-04-29T01:25:37.340Z,7.80
2019-04-29T01:28:08.507Z,7.70
2019-04-29T01:30:52.681Z,7.70
2019-04-29T01:33:18.771Z,7.60
2019-04-29T01:35:46.369Z,7.60
2019-04-29T01:38:12.512Z,7.50
2019-04-29T01:40:52.678Z,7.50
2019-04-29T01:43:18.832Z,7.50
2019-04-29T01:45:44.958Z,7.50
2019-04-29T01:48:11.185Z,7.50
2019-04-29T01:50:37.244Z,7.50
2019-04-29T01:53:03.447Z,7.50
2019-04-29T01:55:29.615Z,7.40
2019-04-29T01:57:55.749Z,7.40
2019-04-29T02:00:21.956Z,7.50
2019-04-29T02:02:48.036Z,7.50
2019-04-29T02:05:14.162Z,7.50
2019-04-29T02:07:40.246Z,7.40
2019-04-29T02:10:11.349Z,7.30
2019-04-29T02:12:37.502Z,7.30
2019-04-29T02:15:05.523Z,7.10
2019-04-29T02:17:31.615Z,7.20
2019-04-29T02:19:57.704Z,7.20
2019-04-29T02:22:25.740Z,7.10
2019-04-29T02:24:53.842Z,7.00
2019-04-29T02:27:19.930Z,7.00
2019-04-29T02:29:46.068Z,7.10
2019-04-29T02:32:12.247Z,7.00
2019-04-29T02:34:38.398Z,7.00
2019-04-29T02:37:06.431Z,7.00
2019-04-29T02:39:34.468Z,7.10
2019-04-29T02:42:05.727Z,7.20
2019-04-29T02:44:31.836Z,7.10
2019-04-29T02:46:58.039Z,7.10
2019-04-29T02:49:24.109Z,7.00
2019-04-29T02:51:52.168Z,6.90
2019-04-29T02:54:18.592Z,6.90
2019-04-29T02:56:49.425Z,6.90
2019-04-29T02:59:17.557Z,7.10
2019-04-29T03:01:48.627Z,7.10
2019-04-29T03:04:22.838Z,7.10
2019-04-29T03:06:49.131Z,7.20
2019-04-29T03:09:15.191Z,7.20
2019-04-29T03:11:41.405Z,7.00
2019-04-29T03:14:07.478Z,7.00
2019-04-29T03:16:33.614Z,7.10
2019-04-29T03:19:07.809Z,7.10
2019-04-29T03:21:44.701Z,7.00
2019-04-29T03:24:11.135Z,7.00
2019-04-29T03:26:37.205Z,7.00
2019-04-29T03:29:05.560Z,7.00
2019-04-29T03:31:38.654Z,7.00
2019-04-29T03:33:59.883Z,7.10
2019-04-29T03:36:26.008Z,7.10
2019-04-29T03:38:52.205Z,7.10
2019-04-29T03:41:18.343Z,7.20
2019-04-29T03:43:44.430Z,7.30
2019-04-29T03:46:10.524Z,7.30
2019-04-29T03:48:36.669Z,7.30
2019-04-29T03:51:02.877Z,7.30
2019-04-29T03:53:29.031Z,7.40
2019-04-29T03:55:56.069Z,7.30
2019-04-29T03:58:23.035Z,7.20
2019-04-29T04:00:51.206Z,7.10
2019-04-29T04:03:24.912Z,7.20
2019-04-29T04:05:52.906Z,7.20
2019-04-29T04:08:20.957Z,7.30
2019-04-29T04:10:47.067Z,7.30
2019-04-29T04:13:13.253Z,7.20
2019-04-29T04:15:39.416Z,7.10
2019-04-29T04:18:10.289Z,7.10
2019-04-29T04:20:36.461Z,7.00
2019-04-29T04:23:02.685Z,7.20
2019-04-29T04:25:28.886Z,7.10
2019-04-29T04:27:54.990Z,7.10
2019-04-29T04:30:21.389Z,7.00
2019-04-29T04:32:47.571Z,6.80
2019-04-29T04:35:14.034Z,6.70
2019-04-29T04:37:40.132Z,6.80
2019-04-29T04:40:08.843Z,6.80
2019-04-29T04:42:35.090Z,6.80
2019-04-29T04:45:01.527Z,6.90
2019-04-29T04:47:27.709Z,7.00
2019-04-29T04:49:54.506Z,7.00
2019-04-29T04:52:21.216Z,7.00
2019-04-29T04:54:49.734Z,7.00
2019-04-29T04:57:16.373Z,7.20
2019-04-29T04:59:43.092Z,7.20
2019-04-29T05:02:09.756Z,7.20
2019-04-29T05:04:36.677Z,7.30
2019-04-29T05:07:03.431Z,7.40
2019-04-29T05:09:30.073Z,7.40
2019-04-29T05:11:56.939Z,7.40
2019-04-29T05:14:23.729Z,7.30
2019-04-29T05:16:49.972Z,7.40
2019-04-29T05:19:16.832Z,7.40
2019-04-29T05:21:43.168Z,7.40
2019-04-29T05:24:09.810Z,7.50
2019-04-29T05:26:36.533Z,7.50
2019-04-29T05:29:03.012Z,7.60
2019-04-29T05:31:29.869Z,7.60
2019-04-29T05:33:56.354Z,7.60
2019-04-29T05:36:25.133Z,7.60
2019-04-29T05:38:53.667Z,7.60
2019-04-29T05:41:20.863Z,7.60
2019-04-29T05:43:52.325Z,7.70
2019-04-29T05:46:23.599Z,7.70
2019-04-29T05:48:50.205Z,7.80
2019-04-29T05:51:35.375Z,7.80
2019-04-29T05:54:10.399Z,7.70
2019-04-29T05:56:37.143Z,7.50
2019-04-29T05:59:03.757Z,7.70
2019-04-29T06:01:31.166Z,7.80
2019-04-29T06:03:57.361Z,7.90
2019-04-29T06:06:23.653Z,7.80
2019-04-29T06:08:49.772Z,7.80
2019-04-29T06:11:16.141Z,7.80
2019-04-29T06:13:42.221Z,7.60
2019-04-29T06:16:08.465Z,7.70
2019-04-29T06:18:34.663Z,7.80
2019-04-29T06:21:09.015Z,7.80
2019-04-29T06:23:28.838Z,7.90
2019-04-29T06:25:54.920Z,8.00
2019-04-29T06:28:21.579Z,8.00
2019-04-29T06:30:50.236Z,8.20
2019-04-29T06:33:17.129Z,8.40
2019-04-29T06:35:47.012Z,8.10
2019-04-29T06:38:11.273Z,8.20
2019-04-29T06:40:37.431Z,8.30
2019-04-29T06:43:03.660Z,8.40
2019-04-29T06:45:29.858Z,8.40
2019-04-29T06:47:55.975Z,8.40
2019-04-29T06:50:22.212Z,8.50
2019-04-29T06:52:48.304Z,8.50
2019-04-29T06:55:14.844Z,8.50
2019-04-29T06:57:41.014Z,8.70
2019-04-29T07:00:07.887Z,8.70
2019-04-29T07:02:34.032Z,8.70
2019-04-29T07:05:00.286Z,8.60
2019-04-29T07:07:26.413Z,8.70
2019-04-29T07:09:52.615Z,8.80
2019-04-29T07:12:18.741Z,8.80
2019-04-29T07:14:44.815Z,8.80
2019-04-29T07:17:10.953Z,8.80
2019-04-29T07:19:37.186Z,8.80
2019-04-29T07:22:03.518Z,8.80
2019-04-29T07:24:29.641Z,8.90
2019-04-29T07:26:57.798Z,8.90
2019-04-29T07:29:29.393Z,8.90
2019-04-29T07:31:51.849Z,9.00
2019-04-29T07:34:17.978Z,9.20
2019-04-29T07:36:44.057Z,9.10
2019-04-29T07:39:10.152Z,9.20
2019-04-29T07:41:36.234Z,9.20
2019-04-29T07:44:02.846Z,9.30
2019-04-29T07:46:36.410Z,9.20
2019-04-29T07:49:02.150Z,9.40
2019-04-29T07:51:29.314Z,9.50
2019-04-29T07:53:55.443Z,9.60
2019-04-29T07:56:21.613Z,9.50
2019-04-29T07:58:48.672Z,9.60
2019-04-29T08:01:15.012Z,9.70
2019-04-29T08:03:41.196Z,9.70
2019-04-29T08:06:07.829Z,9.80
2019-04-29T08:08:34.758Z,9.80
2019-04-29T08:11:00.891Z,9.70
2019-04-29T08:13:27.368Z,9.90
2019-04-29T08:15:53.628Z,9.80
2019-04-29T08:18:19.857Z,10.00
2019-04-29T08:20:46.033Z,9.90
2019-04-29T08:23:12.102Z,9.90
2019-04-29T08:25:38.220Z,10.10
2019-04-29T08:28:04.374Z,10.10
2019-04-29T08:30:30.569Z,10.10
2019-04-29T08:32:56.663Z,10.10
2019-04-29T08:35:22.751Z,10.10
2019-04-29T08:37:49.016Z,10.30
2019-04-29T08:40:16.996Z,10.30
2019-04-29T08:42:54.322Z,10.40
2019-04-29T08:45:34.799Z,10.30
2019-04-29T08:48:00.704Z,10.30
2019-04-29T08:50:26.910Z,10.30
2019-04-29T08:52:53.115Z,10.40
2019-04-29T08:55:19.523Z,10.30
2019-04-29T08:57:45.762Z,10.30
2019-04-29T09:00:12.784Z,10.40
2019-04-29T09:02:41.242Z,10.50
2019-04-29T09:05:11.384Z,10.60
2019-04-29T09:07:36.222Z,10.60
2019-04-29T09:10:04.998Z,10.70
2019-04-29T09:12:31.183Z,10.90
2019-04-29T09:14:57.542Z,10.90
2019-04-29T09:17:23.697Z,11.00
2019-04-29T09:19:49.972Z,11.10
2019-04-29T09:22:18.017Z,11.20
2019-04-29T09:25:03.026Z,11.20
2019-04-29T09:27:29.247Z,11.20
2019-04-29T09:29:58.861Z,11.30
2019-04-29T09:32:23.478Z,11.40
2019-04-29T09:34:49.620Z,11.50
2019-04-29T09:37:18.547Z,11.30
2019-04-29T09:39:45.722Z,11.30
2019-04-29T09:42:25.729Z,11.30
2019-04-29T09:44:59.833Z,11.40
2019-04-29T09:47:26.648Z,11.40
2019-04-29T09:49:52.734Z,11.30
2019-04-29T09:52:18.937Z,11.50
2019-04-29T09:54:45.044Z,11.70
2019-04-29T09:57:11.170Z,11.80
2019-04-29T09:59:41.969Z,11.80
2019-04-29T10:02:31.212Z,11.60
2019-04-29T10:05:07.870Z,11.30
2019-04-29T10:07:34.403Z,11.10
2019-04-29T10:10:02.323Z,11.20
2019-04-29T10:12:29.204Z,11.20
2019-04-29T10:14:55.924Z,11.20
2019-04-29T10:17:30.166Z,11.20
2019-04-29T10:19:58.604Z,11.10
2019-04-29T10:22:24.834Z,11.20
2019-04-29T10:24:53.457Z,11.20
2019-04-29T10:27:19.586Z,11.20
2019-04-29T10:29:50.846Z,11.10
2019-04-29T10:32:16.378Z,11.20
2019-04-29T10:34:43.259Z,11.20
2019-04-29T10:37:09.936Z,11.30
2019-04-29T10:39:56.030Z,11.50
2019-04-29T10:42:24.463Z,11.50
2019-04-29T10:45:01.381Z,11.50
2019-04-29T10:47:29.472Z,11.60
2019-04-29T10:50:00.410Z,11.50
2019-04-29T10:52:26.659Z,11.60
2019-04-29T10:54:55.249Z,11.60
2019-04-29T10:57:22.794Z,11.50
2019-04-29T10:59:50.944Z,11.40
2019-04-29T11:02:19.074Z,11.40
2019-04-29T11:04:47.220Z,11.50
2019-04-29T11:07:19.207Z,11.50
2019-04-29T11:09:50.758Z,11.50
2019-04-29T11:12:18.186Z,11.40
2019-04-29T11:14:44.266Z,11.50
2019-04-29T11:17:16.352Z,11.50
2019-04-29T11:19:39.890Z,11.40
2019-04-29T11:22:08.321Z,11.40
2019-04-29T11:24:39.365Z,11.40
2019-04-29T11:27:16.530Z,11.40
2019-04-29T11:29:42.645Z,11.30
2019-04-29T11:32:11.035Z,11.30
2019-04-29T11:34:39.084Z,11.30
2019-04-29T11:37:07.163Z,11.40
2019-04-29T11:39:33.248Z,11.50
2019-04-29T11:42:01.236Z,11.40
2019-04-29T11:44:27.950Z,11.30
2019-04-29T11:46:54.337Z,11.30
2019-04-29T11:49:22.331Z,11.10
2019-04-29T11:52:08.461Z,11.00
2019-04-29T11:54:18.203Z,10.90
2019-04-29T11:56:44.869Z,10.80
2019-04-29T11:59:31.589Z,10.60
2019-04-29T12:02:16.305Z,10.60
2019-04-29T12:04:44.301Z,10.30
2019-04-29T12:07:10.653Z,10.10
2019-04-29T12:09:36.935Z,10.00
2019-04-29T12:12:03.339Z,10.00
2019-04-29T12:14:46.545Z,10.00
2019-04-29T12:17:29.812Z,10.10
2019-04-29T12:20:14.353Z,10.10
2019-04-29T12:22:48.179Z,10.10
2019-04-29T12:25:08.939Z,10.10
2019-04-29T12:27:35.189Z,10.10
2019-04-29T12:30:05.691Z,10.10
2019-04-29T12:32:33.926Z,10.00
2019-04-29T12:35:01.966Z,10.10
2019-04-29T12:37:39.379Z,10.10
2019-04-29T12:40:25.279Z,10.30
2019-04-29T12:42:56.175Z,10.30
2019-04-29T12:45:33.383Z,10.30
2019-04-29T12:48:00.933Z,10.30
2019-04-29T12:50:27.782Z,10.30
2019-04-29T12:52:54.714Z,10.40
2019-04-29T12:55:45.093Z,10.30
2019-04-29T12:58:08.993Z,10.30
2019-04-29T13:00:47.281Z,10.40
2019-04-29T13:03:25.907Z,10.30
2019-04-29T13:06:03.625Z,10.30
2019-04-29T13:08:32.374Z,10.40
2019-04-29T13:11:03.622Z,10.30
2019-04-29T13:13:29.967Z,10.30
2019-04-29T13:16:07.472Z,10.30
2019-04-29T13:18:36.030Z,10.30
2019-04-29T13:21:10.000Z,10.40
2019-04-29T13:23:39.372Z,10.20
2019-04-29T13:25:59.486Z,10.20
2019-04-29T13:28:30.380Z,10.10
2019-04-29T13:33:22.761Z,10.00
2019-04-29T13:33:23.237Z,10.10
2019-04-29T13:35:49.870Z,10.10
2019-04-29T13:38:16.565Z,10.00
2019-04-29T13:40:43.361Z,9.90
2019-04-29T13:43:10.019Z,9.90
2019-04-29T13:45:47.768Z,9.90
2019-04-29T13:48:28.560Z,9.90
2019-04-29T13:50:57.216Z,9.90
2019-04-29T13:53:24.217Z,9.90
2019-04-29T13:56:10.026Z,9.90
2019-04-29T13:58:22.094Z,9.90
2019-04-29T14:00:55.748Z,9.80
2019-04-29T14:03:24.559Z,9.90
2019-04-29T14:06:03.638Z,9.90
2019-04-29T14:08:19.823Z,10.00
2019-04-29T14:10:51.180Z,10.00
2019-04-29T14:13:20.998Z,10.10
2019-04-29T14:15:46.275Z,10.10
2019-04-29T14:18:13.764Z,10.00
2019-04-29T14:20:40.686Z,10.00
2019-04-29T14:23:07.717Z,10.00
2019-04-29T14:25:34.305Z,9.90
2019-04-29T14:28:01.076Z,9.90
2019-04-29T14:30:38.582Z,9.80
2019-04-29T14:33:01.596Z,9.80
2019-04-29T14:35:28.601Z,9.80
2019-04-29T14:38:00.057Z,9.90
2019-04-29T14:40:24.160Z,9.80
2019-04-29T14:42:57.772Z,9.70
2019-04-29T14:45:39.816Z,9.70
2019-04-29T14:48:11.410Z,9.70
2019-04-29T14:50:39.096Z,9.60
2019-04-29T14:53:09.047Z,9.50
2019-04-29T14:55:35.594Z,9.50
2019-04-29T14:58:02.185Z,9.50
2019-04-29T15:00:50.857Z,9.50
2019-04-29T15:03:19.697Z,9.60
2019-04-29T15:05:46.545Z,9.50
2019-04-29T15:08:13.390Z,9.50
2019-04-29T15:10:40.739Z,9.50
2019-04-29T15:13:20.593Z,9.50
2019-04-29T15:16:04.305Z,9.50
2019-04-29T15:18:48.860Z,9.40
2019-04-29T15:21:31.680Z,9.40
2019-04-29T15:23:49.524Z,9.50
2019-04-29T15:26:16.256Z,9.50
2019-04-29T15:28:52.022Z,9.40
2019-04-29T15:31:20.113Z,9.40
2019-04-29T15:33:47.012Z,9.50
2019-04-29T15:36:13.750Z,9.30
2019-04-29T15:38:40.491Z,9.30
2019-04-29T15:41:06.880Z,9.20
2019-04-29T15:43:46.397Z,9.30
2019-04-29T15:46:06.666Z,9.30
2019-04-29T15:48:31.149Z,9.40
2019-04-29T15:50:57.422Z,9.30
2019-04-29T15:53:23.686Z,9.30
2019-04-29T15:55:49.955Z,9.30
2019-04-29T15:58:16.074Z,9.30
2019-04-29T16:00:42.250Z,9.20
2019-04-29T16:05:56.175Z,9.30
2019-04-29T16:08:28.996Z,9.20
2019-04-29T16:11:11.740Z,9.10
2019-04-29T16:13:37.816Z,9.10
2019-04-29T16:16:04.876Z,9.00
2019-04-29T16:18:31.042Z,9.20
2019-04-29T16:20:57.164Z,9.20
2019-04-29T16:23:23.753Z,9.20
2019-04-29T16:25:52.151Z,9.20
2019-04-29T16:28:24.481Z,9.20
2019-04-29T16:30:46.978Z,9.20
2019-04-29T16:33:15.393Z,9.20
2019-04-29T16:35:41.808Z,9.20
2019-04-29T16:38:11.685Z,9.00
2019-04-29T16:40:41.109Z,8.90
2019-04-29T16:43:12.295Z,9.10
2019-04-29T16:45:44.237Z,9.00
2019-04-29T16:48:12.395Z,9.00
2019-04-29T16:50:39.336Z,9.10
2019-04-29T16:53:06.369Z,9.10
2019-04-29T16:55:35.878Z,9.20
2019-04-29T16:58:07.769Z,9.20
2019-04-29T17:00:34.095Z,9.10
2019-04-29T17:03:01.103Z,9.00
2019-04-29T17:05:27.864Z,9.00
2019-04-29T17:07:54.450Z,8.90
2019-04-29T17:10:25.829Z,8.90
2019-04-29T17:12:52.703Z,8.90
2019-04-29T17:15:25.076Z,8.80
2019-04-29T17:17:48.302Z,8.80
2019-04-29T17:20:15.379Z,8.90
2019-04-29T17:22:43.143Z,8.90
2019-04-29T17:25:13.426Z,8.90
2019-04-29T17:27:47.830Z,8.90
2019-04-29T17:30:38.261Z,9.10
2019-04-29T17:33:04.150Z,9.00
2019-04-29T17:35:15.456Z,9.30
2019-04-29T17:35:33.276Z,8.90
2019-04-29T17:38:00.189Z,8.90
2019-04-29T17:40:26.886Z,8.90
2019-04-29T17:42:55.769Z,8.90
2019-04-29T17:45:30.666Z,8.90
2019-04-29T17:47:54.477Z,8.90
2019-04-29T17:50:29.881Z,8.90
2019-04-29T17:52:51.981Z,8.80
2019-04-29T17:55:38.731Z,8.80
2019-04-29T17:58:25.999Z,8.80
2019-04-29T18:00:58.486Z,8.80
2019-04-29T18:03:43.117Z,8.80
2019-04-29T18:06:18.793Z,8.80
2019-04-29T18:08:44.929Z,8.80
2019-04-29T18:11:12.124Z,8.80
2019-04-29T18:13:38.782Z,8.70
2019-04-29T18:16:17.311Z,8.80
2019-04-29T18:18:53.470Z,8.80
2019-04-29T18:21:30.662Z,8.80
2019-04-29T18:23:59.415Z,8.80
2019-04-29T18:26:28.432Z,8.80
2019-04-29T18:28:58.286Z,8.80
2019-04-29T18:31:26.405Z,8.70
2019-04-29T18:33:53.270Z,8.80
2019-04-29T18:36:24.136Z,8.80
2019-04-29T18:38:50.114Z,8.80
2019-04-29T18:41:24.778Z,8.80
2019-04-29T18:43:51.114Z,8.70
2019-04-29T18:46:17.809Z,8.70
2019-04-29T18:48:45.701Z,8.80
2019-04-29T18:51:12.424Z,8.80
2019-04-29T18:53:39.194Z,8.80
2019-04-29T18:56:06.101Z,8.80
2019-04-29T18:58:32.738Z,8.80
2019-04-29T19:00:59.566Z,8.80
2019-04-29T19:03:29.742Z,8.90
2019-04-29T19:05:58.010Z,8.90
2019-04-29T19:08:26.678Z,9.00
2019-04-29T19:10:53.005Z,9.00
2019-04-29T19:13:19.600Z,9.00
2019-04-29T19:15:48.668Z,8.90
2019-04-29T19:18:19.451Z,9.00
2019-04-29T19:20:46.104Z,8.90
2019-04-29T19:23:16.061Z,8.90
2019-04-29T19:25:45.885Z,9.00
2019-04-29T19:28:15.009Z,8.90
2019-04-29T19:30:38.896Z,8.90
2019-04-29T19:33:07.429Z,9.00
2019-04-29T19:35:38.432Z,9.00
2019-04-29T19:38:02.318Z,9.00
2019-04-29T19:40:30.513Z,9.00
2019-04-29T19:42:57.616Z,9.10
2019-04-29T19:45:24.496Z,9.10
2019-04-29T19:47:53.381Z,9.10
2019-04-29T19:50:20.002Z,9.00
2019-04-29T19:52:46.742Z,9.00
2019-04-29T19:55:14.008Z,9.00
2019-04-29T19:57:46.957Z,9.00
2019-04-29T20:00:09.060Z,9.00
2019-04-29T20:02:36.661Z,9.10
2019-04-29T20:05:08.409Z,9.10
2019-04-29T20:07:41.216Z,9.10
2019-04-29T20:10:06.784Z,9.10
2019-04-29T20:12:33.306Z,9.20
2019-04-29T20:15:02.325Z,9.10
2019-04-29T20:17:33.408Z,9.10
2019-04-29T20:20:05.511Z,9.20
2019-04-29T20:22:32.271Z,9.20
2019-04-29T20:24:58.732Z,9.10
2019-04-29T20:27:26.198Z,9.10
2019-04-29T20:29:52.973Z,9.10
2019-04-29T20:32:22.505Z,9.10
2019-04-29T20:34:47.543Z,9.10
2019-04-29T20:37:16.070Z,9.10
2019-04-29T20:39:42.013Z,9.20
2019-04-29T20:42:10.254Z,9.00
2019-04-29T20:44:36.965Z,9.10
2019-04-29T20:47:18.684Z,9.10
2019-04-29T20:49:36.069Z,9.10
2019-04-29T20:52:05.526Z,9.10
2019-04-29T20:54:35.506Z,9.20
2019-04-29T20:57:05.145Z,9.20
2019-04-29T21:02:13.051Z,9.10
2019-04-29T21:04:46.472Z,9.10
2019-04-29T21:07:07.915Z,9.10
2019-04-29T21:09:35.635Z,9.20
2019-04-29T21:12:03.915Z,9.20
2019-04-29T21:14:34.082Z,9.10
2019-04-29T21:17:02.244Z,9.10
2019-04-29T21:19:28.102Z,9.20
2019-04-29T21:21:55.161Z,9.20
2019-04-29T21:24:21.431Z,9.20
2019-04-29T21:26:47.571Z,9.20
2019-04-29T21:29:15.869Z,9.20
2019-04-29T21:31:41.816Z,9.20
2019-04-29T21:34:08.202Z,9.20
2019-04-29T21:36:52.966Z,9.20
2019-04-29T21:39:26.956Z,9.20
2019-04-29T21:41:57.775Z,9.10
2019-04-29T21:44:23.726Z,9.20
2019-04-29T21:46:50.958Z,9.20
2019-04-29T21:49:17.187Z,9.20
2019-04-29T21:51:48.436Z,9.20
2019-04-29T21:54:14.213Z,9.20
2019-04-29T21:56:39.721Z,9.30
2019-04-29T21:59:09.205Z,9.30
2019-04-29T22:01:37.453Z,9.30
2019-04-29T22:04:03.323Z,9.30
2019-04-29T22:06:30.198Z,9.20
2019-04-29T22:09:01.349Z,9.20
2019-04-29T22:11:25.759Z,9.20
2019-04-29T22:13:52.026Z,9.30
2019-04-29T22:16:18.125Z,9.30
2019-04-29T22:18:44.688Z,9.30
2019-04-29T22:21:16.042Z,9.30
2019-04-29T22:23:44.372Z,9.30
2019-04-29T22:26:08.631Z,9.30
2019-04-29T22:28:35.196Z,9.30
2019-04-29T22:31:01.413Z,9.20
2019-04-29T22:33:29.767Z,9.30
2019-04-29T22:35:55.623Z,9.30
2019-04-29T22:38:21.852Z,9.20
2019-04-29T22:40:49.075Z,9.30
2019-04-29T22:43:19.814Z,9.30
2019-04-29T22:45:45.959Z,9.30
2019-04-29T22:48:17.470Z,9.40
2019-04-29T22:50:41.579Z,9.40
2019-04-29T22:53:08.982Z,9.30
2019-04-29T22:55:38.720Z,9.40
2019-04-29T22:58:08.081Z,9.30
2019-04-29T23:00:51.415Z,9.30
2019-04-29T23:03:17.536Z,9.20
2019-04-29T23:05:46.183Z,9.20
2019-04-29T23:08:12.480Z,9.20
2019-04-29T23:10:38.663Z,9.20
2019-04-29T23:13:06.212Z,9.30
2019-04-29T23:15:32.690Z,9.30
2019-04-29T23:17:59.047Z,9.30
2019-04-29T23:20:28.833Z,9.30
2019-04-29T23:23:15.642Z,9.30
2019-04-29T23:25:45.540Z,9.30
2019-04-29T23:28:11.962Z,9.30
2019-04-29T23:30:38.175Z,9.30
2019-04-29T23:33:07.350Z,9.30
2019-04-29T23:35:34.962Z,9.30
2019-04-29T23:38:04.255Z,9.40
2019-04-29T23:40:29.325Z,9.30
2019-04-29T23:42:57.318Z,9.40
2019-04-29T23:45:25.155Z,9.40
2019-04-29T23:47:51.489Z,9.40
2019-04-29T23:50:18.708Z,9.40
2019-04-29T23:52:47.914Z,9.40
2019-04-29T23:55:15.921Z,9.30
2019-04-29T23:58:02.886Z,9.40
